Time;durP1;ratioP1;P1;durP2;ratioP2;P2;SDS_P1;SDS_P2;PMS_P1;PMS_P2;Temp;Humidity;BMP_temperature;BMP_pressure;BME280_temperature;BME280_humidity;BME280_pressure;Samples;Min_cycle;Max_cycle;Signal;HPM_P1;HPM_P2
2021/11/05 00:00:34;;;;;;;1.00;0.80;;;;;;;5.69;97.40;97555.98;1809249;78;21656;-74
2021/11/05 00:03:02;;;;;;;1.60;0.82;;;;;;;5.72;97.43;97556.26;1807985;78;20943;-74
2021/11/05 00:05:31;;;;;;;2.77;0.90;;;;;;;5.72;97.41;97557.55;1809686;78;21013;-74
2021/11/05 00:07:58;;;;;;;1.25;0.80;;;;;;;5.73;97.46;97556.61;1810269;78;21560;-74
2021/11/05 00:10:25;;;;;;;;;;;;;;;5.75;97.48;97556.06;1816438;77;20961;-74
2021/11/05 00:12:52;;;;;;;1.57;1.00;;;;;;;5.74;97.46;97555.67;1816146;78;21076;-74
2021/11/05 00:15:19;;;;;;;1.10;0.95;;;;;;;5.75;97.50;97547.00;1806890;77;21457;-74
2021/11/05 00:17:45;;;;;;;3.22;0.70;;;;;;;5.75;97.51;97559.95;1813853;78;20977;-74
2021/11/05 00:20:14;;;;;;;1.17;1.00;;;;;;;5.76;97.56;97554.66;1743411;81;20958;-74
2021/11/05 00:22:41;;;;;;;2.15;0.80;;;;;;;5.79;97.54;97553.64;1759890;80;21140;-74
2021/11/05 00:25:08;;;;;;;1.02;0.70;;;;;;;5.81;97.58;97556.97;1752562;81;21244;-74
2021/11/05 00:27:36;;;;;;;1.27;0.80;;;;;;;5.82;97.58;97557.33;1730728;81;21009;-74
2021/11/05 00:30:07;;;;;;;0.85;0.70;;;;;;;5.83;97.56;97552.53;1763133;81;21028;-74
2021/11/05 00:32:34;;;;;;;1.87;0.78;;;;;;;5.84;97.57;97561.95;1751967;81;21080;-74
2021/11/05 00:35:01;;;;;;;1.30;0.90;;;;;;;5.87;97.57;97564.35;1753336;81;21037;-74
2021/11/05 00:37:28;;;;;;;0.75;0.68;;;;;;;5.89;97.63;97562.51;1752212;81;21082;-74
2021/11/05 00:39:55;;;;;;;2.90;1.30;;;;;;;5.91;97.59;97571.02;1755068;81;20996;-74
2021/11/05 00:42:22;;;;;;;0.83;0.83;;;;;;;5.91;97.60;97561.95;1756516;81;21009;-74
2021/11/05 00:44:48;;;;;;;1.57;1.47;;;;;;;5.93;97.67;97566.58;1758007;81;20986;-74
2021/11/05 00:47:16;;;;;;;1.03;0.83;;;;;;;5.94;97.61;97560.50;1745349;80;21508;-74
2021/11/05 00:49:43;;;;;;;;;;;;;;;5.95;97.56;97564.73;1746690;80;21500;-74
2021/11/05 00:52:10;;;;;;;1.60;0.72;;;;;;;5.95;97.61;97562.15;1742963;81;28271;-74
2021/11/05 00:54:37;;;;;;;0.75;0.65;;;;;;;5.96;97.68;97566.39;1755564;81;21021;-74
2021/11/05 00:57:08;;;;;;;3.85;0.93;;;;;;;5.96;97.71;97568.98;1773270;80;21042;-74
2021/11/05 00:59:38;;;;;;;2.50;1.50;;;;;;;6.00;97.78;97573.05;1748428;81;20997;-74
2021/11/05 01:02:06;;;;;;;0.80;0.80;;;;;;;6.03;97.81;97567.68;1769090;79;21093;-74
2021/11/05 01:04:32;;;;;;;;;;;;;;;6.05;97.79;97575.37;1744755;80;21478;-74
2021/11/05 01:06:58;;;;;;;0.60;0.50;;;;;;;6.07;97.75;97567.48;1752176;81;20184;-75
2021/11/05 01:09:25;;;;;;;1.30;0.80;;;;;;;6.08;97.81;97575.61;1751555;80;21097;-75
2021/11/05 01:11:52;;;;;;;2.05;0.95;;;;;;;6.09;97.81;97566.93;1779270;80;21075;-74
2021/11/05 01:14:18;;;;;;;0.97;0.90;;;;;;;6.10;97.84;97572.47;1777418;80;21131;-75
2021/11/05 01:16:45;;;;;;;0.60;0.60;;;;;;;6.12;97.87;97565.44;1775990;80;21422;-75
2021/11/05 01:19:12;;;;;;;0.88;0.70;;;;;;;6.14;97.87;97569.59;1779284;80;21552;-74
2021/11/05 01:21:39;;;;;;;1.30;0.98;;;;;;;6.16;97.94;97572.07;1781235;80;21081;-75
2021/11/05 01:24:08;;;;;;;0.93;0.80;;;;;;;6.19;97.91;97560.21;1764043;80;20962;-75
2021/11/05 01:26:35;;;;;;;1.20;0.88;;;;;;;6.19;97.86;97571.88;1766718;80;21894;-73
2021/11/05 01:29:02;;;;;;;0.80;0.70;;;;;;;6.21;97.94;97568.25;1778167;80;20914;-74
2021/11/05 01:31:29;;;;;;;0.70;0.70;;;;;;;6.23;97.92;97573.36;1781221;80;20950;-74
2021/11/05 01:33:55;;;;;;;1.10;0.80;;;;;;;6.24;98.01;97565.47;1780193;80;20899;-74
2021/11/05 01:36:23;;;;;;;0.90;0.70;;;;;;;6.26;97.99;97573.16;1779032;80;20928;-74
2021/11/05 01:38:50;;;;;;;1.65;1.00;;;;;;;6.28;98.03;97573.90;1771055;79;21521;-74
2021/11/05 01:41:17;;;;;;;2.10;1.90;;;;;;;6.31;98.08;97569.81;1782976;80;21076;-74
2021/11/05 01:43:47;;;;;;;1.42;1.15;;;;;;;6.30;98.01;97578.50;1788545;79;21504;-74
2021/11/05 01:46:13;;;;;;;2.15;1.95;;;;;;;6.32;98.07;97577.12;1781766;80;20953;-73
2021/11/05 01:48:40;;;;;;;1.63;1.30;;;;;;;6.34;98.11;97581.27;1786777;80;21001;-74
2021/11/05 01:51:09;;;;;;;1.40;1.27;;;;;;;6.36;98.13;97583.31;1781471;80;20950;-74
2021/11/05 01:53:35;;;;;;;1.10;1.00;;;;;;;6.37;98.11;97584.97;1745205;81;20959;-74
2021/11/05 01:56:03;;;;;;;1.15;1.05;;;;;;;6.38;98.17;97586.61;1757345;80;22230;-74
2021/11/05 01:58:29;;;;;;;2.00;1.40;;;;;;;6.39;98.20;97588.30;1757036;80;21057;-74
2021/11/05 02:00:56;;;;;;;2.27;1.40;;;;;;;6.41;98.25;97592.92;1756740;80;21007;-74
2021/11/05 02:03:22;;;;;;;1.32;1.22;;;;;;;6.43;98.28;97588.45;1779683;80;21879;-74
2021/11/05 02:05:53;;;;;;;1.47;1.35;;;;;;;6.46;98.30;97592.14;1795049;79;20934;-73
2021/11/05 02:08:21;;;;;;;2.22;1.22;;;;;;;6.45;98.22;97591.78;1748795;80;21134;-74
2021/11/05 02:10:50;;;;;;;1.30;1.20;;;;;;;6.45;98.25;97591.78;1766192;80;20950;-75
2021/11/05 02:13:19;;;;;;;1.47;1.30;;;;;;;6.45;98.29;97596.97;1787086;80;20998;-74
2021/11/05 02:15:47;;;;;;;1.45;1.05;;;;;;;6.46;98.36;97593.44;1777819;80;21088;-75
2021/11/05 02:18:15;;;;;;;2.72;1.17;;;;;;;6.49;98.40;97599.72;1753337;80;21028;-73
2021/11/05 02:21:03;;;;;;;1.40;1.30;;;;;;;6.52;98.49;97599.98;1742931;80;21492;-73
2021/11/05 02:23:30;;;;;;;1.60;1.17;;;;;;;6.52;98.48;97601.75;1707904;82;21062;-73
2021/11/05 02:25:56;;;;;;;1.67;1.40;;;;;;;6.55;98.51;97615.81;1706492;83;21024;-72
2021/11/05 02:28:23;;;;;;;3.00;1.20;;;;;;;6.57;98.57;97620.44;1705080;82;21711;-73
2021/11/05 02:30:50;;;;;;;1.62;1.40;;;;;;;6.60;98.55;97630.61;1678207;83;21025;-73
2021/11/05 02:33:17;;;;;;;1.35;1.05;;;;;;;6.59;98.53;97626.37;1677705;84;21018;-73
2021/11/05 02:35:44;;;;;;;1.57;1.10;;;;;;;6.62;98.56;97630.06;1700500;83;21069;-73
2021/11/05 02:38:11;;;;;;;1.50;1.23;;;;;;;6.62;98.62;97620.98;1703055;83;21627;-73
2021/11/05 02:40:38;;;;;;;1.92;1.65;;;;;;;6.64;98.64;97630.80;1689914;83;21222;-73
2021/11/05 02:43:04;;;;;;;1.00;1.00;;;;;;;6.66;98.64;97632.34;1691713;83;20982;-73
2021/11/05 02:45:31;;;;;;;1.62;1.50;;;;;;;6.66;98.68;97639.29;1681982;83;21048;-73
2021/11/05 02:47:58;;;;;;;2.40;1.50;;;;;;;6.68;98.72;97641.33;1682151;83;21022;-73
2021/11/05 02:50:24;;;;;;;1.40;1.30;;;;;;;6.69;98.67;97646.43;1688739;83;21079;-73
2021/11/05 02:52:51;;;;;;;1.47;1.25;;;;;;;6.71;98.75;97643.72;1690339;83;21077;-73
2021/11/05 02:55:18;;;;;;;1.40;1.30;;;;;;;6.74;98.70;97653.89;1674742;83;21017;-73
2021/11/05 02:57:45;;;;;;;1.47;1.37;;;;;;;6.76;98.71;97654.63;1680612;83;20958;-73
2021/11/05 03:00:15;;;;;;;0.98;0.90;;;;;;;6.79;98.76;97658.33;1695891;83;21003;-73
2021/11/05 03:02:41;;;;;;;1.27;1.17;;;;;;;6.81;98.81;97662.13;1678798;83;21592;-72
2021/11/05 03:05:08;;;;;;;0.95;0.85;;;;;;;6.83;98.73;97666.26;1686036;83;21648;-73
2021/11/05 03:07:35;;;;;;;1.23;1.03;;;;;;;6.85;98.75;97664.41;1700259;83;20974;-73
2021/11/05 03:10:02;;;;;;;1.20;1.00;;;;;;;6.83;98.65;97663.66;1693902;83;21536;-73
2021/11/05 03:12:29;;;;;;;1.07;0.80;;;;;;;6.82;98.62;97672.86;1691603;83;21526;-73
2021/11/05 03:14:56;;;;;;;1.27;1.03;;;;;;;6.82;98.69;97674.98;1686114;83;21559;-73
2021/11/05 03:17:23;;;;;;;1.20;1.10;;;;;;;6.83;98.76;97672.73;1684572;83;21866;-73
2021/11/05 03:19:52;;;;;;;1.25;1.15;;;;;;;6.85;98.81;97681.27;1668833;83;21029;-73
2021/11/05 03:22:18;;;;;;;1.00;0.90;;;;;;;6.86;98.88;97679.06;1673070;84;20985;-73
2021/11/05 03:24:45;;;;;;;1.07;0.97;;;;;;;6.87;98.82;97693.68;1675203;83;21552;-73
2021/11/05 03:27:12;;;;;;;1.10;1.00;;;;;;;6.88;98.85;97694.51;1655794;84;21017;-73
2021/11/05 03:29:38;;;;;;;0.80;0.70;;;;;;;6.87;98.76;97697.57;1674601;84;21145;-73
2021/11/05 03:32:06;;;;;;;2.60;1.05;;;;;;;6.86;98.78;97697.22;1681557;83;21052;-73
2021/11/05 03:34:33;;;;;;;0.85;0.80;;;;;;;6.87;98.82;97709.25;1664771;84;21452;-73
2021/11/05 03:37:00;;;;;;;1.50;1.35;;;;;;;6.88;98.85;97718.68;1660887;83;21052;-73
2021/11/05 03:39:26;;;;;;;1.57;1.03;;;;;;;6.86;98.81;97717.97;1668779;84;21689;-73
2021/11/05 03:41:53;;;;;;;1.60;1.10;;;;;;;6.87;98.83;97717.03;1672781;83;21089;-73
2021/11/05 03:44:20;;;;;;;1.12;0.80;;;;;;;6.86;98.84;97720.56;1677219;83;21319;-73
2021/11/05 03:46:46;;;;;;;2.20;0.73;;;;;;;6.88;98.99;97726.46;1670515;83;21667;-73
2021/11/05 03:49:13;;;;;;;0.97;0.70;;;;;;;6.89;99.01;97730.74;1660600;83;21037;-73
2021/11/05 03:51:40;;;;;;;0.40;0.40;;;;;;;6.90;99.00;97728.97;1674260;83;21108;-73
2021/11/05 03:54:07;;;;;;;1.13;0.70;;;;;;;6.89;99.04;97734.63;1656513;83;21514;-73
2021/11/05 03:56:34;;;;;;;0.60;0.60;;;;;;;6.91;99.10;97743.59;1672110;84;21262;-73
2021/11/05 03:59:02;;;;;;;0.40;0.40;;;;;;;6.91;99.03;97741.83;1669504;83;21401;-73
2021/11/05 04:01:34;;;;;;;0.55;0.50;;;;;;;6.89;98.94;97752.80;1658931;84;21103;-74
2021/11/05 04:04:00;;;;;;;0.70;0.50;;;;;;;6.88;99.01;97751.11;1671077;83;21659;-75
2021/11/05 04:06:27;;;;;;;0.45;0.37;;;;;;;6.87;99.06;97761.13;1655300;83;21516;-75
2021/11/05 04:08:54;;;;;;;0.50;0.40;;;;;;;6.87;99.08;97759.83;1671437;83;20957;-73
2021/11/05 04:11:20;;;;;;;0.57;0.42;;;;;;;6.88;99.18;97767.97;1674514;84;22048;-74
2021/11/05 04:13:47;;;;;;;0.57;0.30;;;;;;;6.88;99.22;97767.97;1673045;83;21029;-74
2021/11/05 04:16:14;;;;;;;0.75;0.33;;;;;;;6.86;99.16;97775.05;1674779;84;21089;-74
2021/11/05 04:18:40;;;;;;;0.50;0.50;;;;;;;6.87;99.24;97783.65;1667051;83;21058;-74
2021/11/05 04:21:07;;;;;;;0.53;0.30;;;;;;;6.89;99.36;97786.95;1680132;83;21036;-74
2021/11/05 04:23:34;;;;;;;0.37;0.30;;;;;;;6.90;99.52;97789.47;1691386;82;21262;-74
2021/11/05 04:26:07;;;;;;;0.62;0.40;;;;;;;6.93;99.54;97797.05;1690586;83;21045;-74
2021/11/05 04:28:35;;;;;;;2.25;0.40;;;;;;;6.94;99.56;97806.49;1699847;82;21045;-74
2021/11/05 04:31:02;;;;;;;0.60;0.40;;;;;;;6.94;99.33;97809.09;1694886;82;21091;-74
2021/11/05 04:33:32;;;;;;;0.93;0.70;;;;;;;6.91;99.36;97817.06;1707876;82;20966;-74
2021/11/05 04:36:04;;;;;;;0.98;0.85;;;;;;;6.89;99.39;97826.73;1709979;82;20899;-74
2021/11/05 04:38:30;;;;;;;0.88;0.70;;;;;;;6.88;99.38;97830.23;1689633;83;21030;-73
2021/11/05 04:40:57;;;;;;;1.75;1.10;;;;;;;6.86;99.36;97837.30;1688413;83;21556;-74
2021/11/05 04:43:24;;;;;;;1.25;0.82;;;;;;;6.85;99.40;97835.62;1699092;82;21167;-74
2021/11/05 04:45:51;;;;;;;1.25;1.00;;;;;;;6.84;99.37;97849.53;1709084;81;21109;-74
2021/11/05 04:48:18;;;;;;;1.07;0.90;;;;;;;6.81;99.28;97852.31;1703167;82;20943;-74
2021/11/05 04:50:45;;;;;;;1.37;0.95;;;;;;;6.79;99.31;97867.13;1696054;82;21044;-74
2021/11/05 04:53:12;;;;;;;1.00;0.80;;;;;;;6.77;99.23;97874.16;1703360;82;20938;-74
2021/11/05 04:55:39;;;;;;;0.60;0.60;;;;;;;6.74;99.24;97882.13;1699470;82;21927;-74
2021/11/05 04:58:06;;;;;;;0.80;0.80;;;;;;;6.72;99.30;97889.17;1691195;82;21623;-74
2021/11/05 05:00:33;;;;;;;;;;;;;;;6.72;99.45;97899.55;1695848;82;20962;-75
2021/11/05 05:02:59;;;;;;;1.90;0.87;;;;;;;6.72;99.44;97902.99;1689748;82;20908;-72
2021/11/05 05:05:27;;;;;;;0.80;0.80;;;;;;;6.69;99.39;97907.52;1693537;82;21085;-74
2021/11/05 05:07:55;;;;;;;1.27;1.07;;;;;;;6.67;99.45;97917.17;1696009;82;21918;-74
2021/11/05 05:10:21;;;;;;;1.27;0.90;;;;;;;6.63;99.40;97919.55;1694280;82;21024;-74
2021/11/05 05:12:48;;;;;;;1.20;1.10;;;;;;;6.63;99.46;97924.75;1693571;82;21152;-74
2021/11/05 05:16:10;;;;;;;1.10;1.00;;;;;;;6.67;99.55;97927.55;1851444;75;23372;-73
2021/11/05 05:18:36;;;;;;;1.50;1.40;;;;;;;6.61;99.45;97943.44;1815724;77;21646;-73
2021/11/05 05:21:03;;;;;;;1.30;1.20;;;;;;;6.58;99.48;97943.63;1819090;77;21512;-73
2021/11/05 05:23:30;;;;;;;0.93;0.87;;;;;;;6.58;99.57;97956.59;1812786;77;21548;-73
2021/11/05 05:25:56;;;;;;;1.52;1.15;;;;;;;6.58;99.55;97956.59;1805383;77;20922;-73
2021/11/05 05:28:23;;;;;;;1.70;1.35;;;;;;;6.57;99.51;97965.30;1803718;77;20954;-73
2021/11/05 05:30:50;;;;;;;3.17;1.20;;;;;;;6.56;99.56;97970.96;1815929;77;22156;-73
2021/11/05 05:33:16;;;;;;;1.40;1.30;;;;;;;6.55;99.50;97972.33;1820306;77;21025;-73
2021/11/05 05:35:43;;;;;;;1.20;1.10;;;;;;;6.55;99.55;97981.41;1814143;77;20991;-73
2021/11/05 05:38:12;;;;;;;1.98;1.67;;;;;;;6.55;99.53;97987.89;1816945;77;21604;-74
2021/11/05 05:40:40;;;;;;;1.98;1.60;;;;;;;6.55;99.57;97994.38;1819915;77;21486;-74
2021/11/05 05:43:06;;;;;;;;;;;;;;;6.55;99.55;98004.75;1817449;77;21008;-74
2021/11/05 05:45:33;;;;;;;2.30;2.10;;;;;;;6.54;99.58;98010.87;1819746;77;21973;-74
2021/11/05 05:48:00;;;;;;;2.67;2.30;;;;;;;6.55;99.63;98016.41;1820845;77;21006;-75
2021/11/05 05:50:26;;;;;;;2.47;1.97;;;;;;;6.55;99.66;98026.32;1817689;77;21635;-74
2021/11/05 05:52:53;;;;;;;2.22;2.02;;;;;;;6.56;99.64;98027.18;1815607;77;21022;-74
2021/11/05 05:55:20;;;;;;;3.00;2.70;;;;;;;6.55;99.66;98039.75;1818824;77;20970;-74
2021/11/05 05:57:46;;;;;;;4.92;2.67;;;;;;;6.55;99.70;98050.95;1819668;77;21052;-74
2021/11/05 06:00:16;;;;;;;3.43;3.13;;;;;;;6.56;99.74;98049.22;1821563;77;21710;-75
2021/11/05 06:02:47;;;;;;;2.92;2.50;;;;;;;6.56;99.74;98057.00;1792940;78;21055;-73
2021/11/05 06:05:15;;;;;;;2.92;2.60;;;;;;;6.57;99.77;98071.63;1820340;77;20955;-72
2021/11/05 06:07:42;;;;;;;3.55;3.05;;;;;;;6.56;99.69;98072.56;1818465;78;20927;-73
2021/11/05 06:10:09;;;;;;;3.87;2.70;;;;;;;6.57;99.81;98075.05;1820827;77;21588;-70
2021/11/05 06:13:27;;;;;;;3.67;2.90;;;;;;;6.63;99.85;98084.23;1837789;76;22826;-72
2021/11/05 06:15:54;;;;;;;3.52;3.22;;;;;;;6.59;99.85;98090.53;1823172;76;21083;-73
2021/11/05 06:18:21;;;;;;;5.97;5.33;;;;;;;6.60;99.85;98098.67;1821811;76;21056;-73
2021/11/05 06:20:47;;;;;;;4.40;2.75;;;;;;;6.62;99.92;98102.03;1818365;78;21012;-72
2021/11/05 06:23:14;;;;;;;3.65;3.33;;;;;;;6.65;99.97;98103.14;1815821;78;20988;-66
2021/11/05 06:25:40;;;;;;;4.28;3.45;;;;;;;6.64;99.91;98114.45;1818100;78;21104;-66
2021/11/05 06:28:08;;;;;;;5.50;3.87;;;;;;;6.65;99.92;98126.48;1818829;76;21424;-67
2021/11/05 06:30:35;;;;;;;4.10;3.67;;;;;;;6.67;99.97;98132.44;1813703;76;21115;-65
2021/11/05 06:33:02;;;;;;;5.27;4.07;;;;;;;6.68;99.92;98141.41;1822176;78;21115;-65
2021/11/05 06:35:35;;;;;;;4.45;4.05;;;;;;;6.66;99.89;98134.63;1816277;78;21623;-65
2021/11/05 06:38:02;;;;;;;5.95;4.28;;;;;;;6.67;99.97;98142.80;1815716;76;20996;-66
2021/11/05 06:40:29;;;;;;;5.22;3.62;;;;;;;6.70;100.00;98148.65;1812308;78;21531;-66
2021/11/05 06:42:55;;;;;;;3.75;3.27;;;;;;;6.74;100.00;98155.78;1818237;78;21076;-67
2021/11/05 06:45:27;;;;;;;3.00;2.30;;;;;;;6.79;100.00;98158.96;1819011;76;21008;-66
2021/11/05 06:47:51;;;;;;;3.92;3.15;;;;;;;6.85;100.00;98165.56;1815045;78;20994;-66
2021/11/05 06:50:18;;;;;;;2.60;2.40;;;;;;;6.87;100.00;98169.73;1810946;76;21017;-66
2021/11/05 06:52:44;;;;;;;5.90;3.23;;;;;;;6.93;100.00;98177.17;1816676;78;22202;-67
2021/11/05 06:55:11;;;;;;;4.33;2.30;;;;;;;7.02;100.00;98184.05;1813020;76;21564;-66
2021/11/05 06:57:37;;;;;;;4.30;2.90;;;;;;;7.08;100.00;98196.67;1821525;78;21096;-66
2021/11/05 07:00:08;;;;;;;2.20;2.00;;;;;;;7.16;100.00;98206.16;1809921;76;21024;-67
2021/11/05 07:02:40;;;;;;;4.10;2.72;;;;;;;7.16;100.00;98204.86;1815472;78;21437;-67
2021/11/05 07:05:04;;;;;;;3.40;2.25;;;;;;;7.26;100.00;98218.99;1817651;76;21486;-66
2021/11/05 07:07:30;;;;;;;;;;;;;;;7.29;100.00;98227.90;1820714;77;21101;-66
2021/11/05 07:09:58;;;;;;;3.33;1.93;;;;;;;7.30;100.00;98236.05;1822815;78;20161;-66
2021/11/05 07:12:24;;;;;;;4.62;2.90;;;;;;;7.29;100.00;98240.87;1806059;78;20945;-66
2021/11/05 07:14:51;;;;;;;2.20;1.90;;;;;;;7.28;100.00;98247.01;1795981;78;21008;-66
2021/11/05 07:17:17;;;;;;;1.82;1.72;;;;;;;7.30;100.00;98249.03;1800329;78;21073;-65
2021/11/05 07:19:47;;;;;;;2.17;1.63;;;;;;;7.30;100.00;98256.82;1793680;78;21157;-66
2021/11/05 07:22:14;;;;;;;2.70;1.82;;;;;;;7.31;100.00;98259.81;1802339;78;21073;-66
2021/11/05 07:24:41;;;;;;;2.07;1.60;;;;;;;7.28;100.00;98260.42;1794731;79;20947;-66
2021/11/05 07:27:10;;;;;;;1.60;1.23;;;;;;;7.30;100.00;98272.40;1795642;78;20983;-66
2021/11/05 07:29:36;;;;;;;1.75;1.50;;;;;;;7.32;100.00;98280.95;1800232;78;21517;-66
2021/11/05 07:32:08;;;;;;;1.57;1.47;;;;;;;7.36;100.00;98287.63;1762841;79;21234;-66
2021/11/05 07:34:34;;;;;;;1.72;1.37;;;;;;;7.42;100.00;98292.09;1731895;81;21258;-70
2021/11/05 07:37:04;;;;;;;1.55;1.45;;;;;;;7.48;100.00;98300.83;1761877;80;26759;-67
2021/11/05 07:39:31;;;;;;;3.10;1.92;;;;;;;7.49;100.00;98308.55;1734421;81;20962;-67
2021/11/05 07:41:58;;;;;;;30.68;3.35;;;;;;;7.50;100.00;98309.37;1757664;80;21561;-67
2021/11/05 07:44:24;;;;;;;2.50;1.32;;;;;;;7.53;100.00;98324.78;1752237;80;21082;-65
2021/11/05 07:46:51;;;;;;;2.85;1.12;;;;;;;7.56;100.00;98332.40;1754157;80;20987;-67
2021/11/05 07:49:18;;;;;;;2.37;1.40;;;;;;;7.58;100.00;98344.84;1753794;80;21071;-67
2021/11/05 07:51:46;;;;;;;1.98;1.30;;;;;;;7.59;100.00;98347.84;1756764;80;21434;-67
2021/11/05 07:54:13;;;;;;;3.85;1.07;;;;;;;7.61;100.00;98357.66;1747823;80;21050;-66
2021/11/05 07:56:40;;;;;;;5.00;1.80;;;;;;;7.64;100.00;98369.17;1749543;79;21350;-68
2021/11/05 07:59:07;;;;;;;2.90;1.20;;;;;;;7.67;100.00;98379.38;1763279;79;21594;-67
2021/11/05 08:01:34;;;;;;;;;;;;;;;7.71;100.00;98388.70;1766555;79;21052;-67
2021/11/05 08:04:02;;;;;;;6.25;1.40;;;;;;;7.70;100.00;98392.23;1761176;79;20191;-67
2021/11/05 08:06:29;;;;;;;2.50;1.20;;;;;;;7.69;100.00;98398.33;1743110;81;21141;-67
2021/11/05 08:08:56;;;;;;;1.42;0.88;;;;;;;7.70;100.00;98418.20;1758435;79;22316;-67
2021/11/05 08:11:29;;;;;;;1.17;0.80;;;;;;;7.66;100.00;98434.88;1736886;81;20958;-67
2021/11/05 08:13:56;;;;;;;2.80;1.07;;;;;;;7.63;100.00;98438.95;1767000;79;21001;-67
2021/11/05 08:16:27;;;;;;;1.50;0.82;;;;;;;7.62;100.00;98443.77;1783873;79;20985;-67
2021/11/05 08:18:54;;;;;;;1.30;0.85;;;;;;;7.63;100.00;98453.23;1780280;79;21152;-67
2021/11/05 08:21:21;;;;;;;2.92;0.93;;;;;;;7.59;100.00;98473.36;1783597;79;21087;-67
2021/11/05 08:23:49;;;;;;;3.12;0.70;;;;;;;7.57;100.00;98471.77;1782163;79;20911;-66
2021/11/05 08:26:17;;;;;;;1.85;0.88;;;;;;;7.55;100.00;98478.33;1772987;80;21000;-67
2021/11/05 08:28:44;;;;;;;1.25;0.90;;;;;;;7.50;100.00;98496.38;1781813;79;20946;-67
2021/11/05 08:31:15;;;;;;;3.10;1.00;;;;;;;7.47;100.00;98505.64;1763202;79;20926;-67
2021/11/05 08:33:44;;;;;;;1.65;0.70;;;;;;;7.42;100.00;98512.83;1758328;79;21074;-67
2021/11/05 08:36:15;;;;;;;2.10;1.10;;;;;;;7.38;100.00;98520.79;1785833;79;21109;-67
2021/11/05 08:38:46;;;;;;;2.92;1.10;;;;;;;7.33;100.00;98533.17;1774424;79;21014;-67
2021/11/05 08:41:16;;;;;;;3.72;1.35;;;;;;;7.30;100.00;98539.00;1773859;79;21018;-67
2021/11/05 08:43:47;;;;;;;1.10;0.90;;;;;;;7.25;100.00;98549.61;1753588;79;21088;-67
2021/11/05 08:46:17;;;;;;;2.33;1.10;;;;;;;7.20;100.00;98551.64;1777539;79;21115;-67
2021/11/05 08:48:45;;;;;;;2.08;0.68;;;;;;;7.16;100.00;98556.12;1784946;79;21547;-67
2021/11/05 08:51:15;;;;;;;1.98;1.07;;;;;;;7.14;100.00;98575.30;1764224;79;21306;-68
2021/11/05 08:53:43;;;;;;;1.27;0.80;;;;;;;7.09;100.00;98587.70;1765553;79;21043;-67
2021/11/05 08:56:10;;;;;;;1.63;0.77;;;;;;;7.08;100.00;98602.87;1783763;79;20973;-67
2021/11/05 08:58:37;;;;;;;1.32;0.93;;;;;;;7.05;100.00;98604.33;1764143;79;21117;-67
2021/11/05 09:01:13;;;;;;;;;;;;;;;6.99;100.00;98628.00;1786416;79;21012;-68
2021/11/05 09:03:46;;;;;;;3.20;1.32;;;;;;;6.89;100.00;98628.47;1780499;79;20101;-67
2021/11/05 09:06:22;;;;;;;3.52;1.20;;;;;;;6.88;100.00;98633.25;1755616;79;20982;-68
2021/11/05 09:09:07;;;;;;;3.35;1.70;;;;;;;6.88;100.00;98646.23;1771526;80;21065;-67
2021/11/05 09:11:32;;;;;;;3.22;1.12;;;;;;;6.90;100.00;98645.70;1759835;80;21100;-67
2021/11/05 09:14:04;;;;;;;2.52;1.15;;;;;;;6.83;100.00;98665.06;1739616;80;20938;-67
2021/11/05 09:16:46;;;;;;;2.08;1.10;;;;;;;6.80;100.00;98671.70;1731767;82;21154;-66
2021/11/05 09:20:19;;;;;;;1.72;1.02;;;;;;;6.84;100.00;98686.23;1782671;78;26223;-66
2021/11/05 09:22:56;;;;;;;2.47;1.12;;;;;;;6.78;100.00;98681.34;1748706;80;21039;-66
2021/11/05 09:25:29;;;;;;;2.50;1.22;;;;;;;6.73;100.00;98700.17;1715412;81;21040;-67
2021/11/05 09:30:59;;;;;;;2.10;1.05;;;;;;;6.67;100.00;98709.09;1666633;84;21050;-67
2021/11/05 09:33:32;;;;;;;1.75;1.10;;;;;;;6.63;100.00;98719.67;1664532;84;21031;-69
2021/11/05 09:36:15;;;;;;;2.55;1.47;;;;;;;6.61;100.00;98742.23;1670498;84;21009;-69
2021/11/05 09:38:44;;;;;;;2.08;1.62;;;;;;;6.60;100.00;98736.67;1672487;84;21334;-69
2021/11/05 09:41:17;;;;;;;1.55;1.40;;;;;;;6.60;100.00;98750.94;1671989;84;21124;-70
2021/11/05 09:43:50;;;;;;;2.35;1.42;;;;;;;6.57;100.00;98756.27;1671271;84;21096;-69
2021/11/05 09:46:37;;;;;;;2.22;1.37;;;;;;;6.56;100.00;98763.68;1667220;85;21049;-68
2021/11/05 09:49:10;;;;;;;2.25;1.32;;;;;;;6.54;100.00;98774.58;1664424;84;21703;-69
2021/11/05 09:51:42;;;;;;;4.30;1.60;;;;;;;6.53;100.00;98770.31;1668111;84;21149;-68
2021/11/05 09:54:18;;;;;;;4.42;1.70;;;;;;;6.53;100.00;98788.47;1666821;83;21083;-68
2021/11/05 09:57:04;;;;;;;2.08;1.52;;;;;;;6.52;100.00;98799.73;1670093;84;21128;-68
2021/11/05 09:59:29;;;;;;;5.15;2.10;;;;;;;6.48;100.00;98802.92;1643066;84;21048;-67
2021/11/05 10:02:07;;;;;;;1.90;1.55;;;;;;;6.49;100.00;98817.10;1666007;83;21018;-67
2021/11/05 10:04:40;;;;;;;3.83;2.05;;;;;;;6.48;100.00;98827.09;1672436;83;22363;-69
2021/11/05 10:07:16;;;;;;;5.55;1.98;;;;;;;6.45;100.00;98831.12;1643897;84;21186;-68
2021/11/05 10:09:58;;;;;;;5.35;2.25;;;;;;;6.47;100.00;98850.06;1671167;84;21150;-69
2021/11/05 10:12:28;;;;;;;4.22;1.95;;;;;;;6.48;100.00;98847.84;1631838;85;22385;-68
2021/11/05 10:15:05;;;;;;;5.08;1.65;;;;;;;6.48;100.00;98853.03;1669234;84;21081;-69
2021/11/05 10:17:36;;;;;;;5.42;2.00;;;;;;;6.48;100.00;98872.48;1675007;83;22059;-69
2021/11/05 10:20:10;;;;;;;3.08;1.70;;;;;;;6.47;100.00;98878.59;1664221;84;21062;-68
2021/11/05 10:22:50;;;;;;;4.15;1.82;;;;;;;6.52;100.00;98882.72;1665848;83;21604;-72
2021/11/05 10:25:36;;;;;;;5.28;1.67;;;;;;;6.50;100.00;98887.53;1671562;84;21122;-72
2021/11/05 10:28:13;;;;;;;3.22;1.70;;;;;;;6.54;100.00;98895.17;1756086;80;21014;-66
2021/11/05 10:30:59;;;;;;;3.22;1.57;;;;;;;6.53;100.00;98899.98;1754212;80;21078;-67
2021/11/05 10:33:41;;;;;;;2.42;1.57;;;;;;;6.54;100.00;98902.49;1752538;80;21041;-67
2021/11/05 10:36:08;;;;;;;2.70;1.35;;;;;;;6.57;100.00;98913.19;1743463;80;21043;-67
2021/11/05 10:38:39;;;;;;;2.27;1.50;;;;;;;6.61;100.00;98922.50;1745996;80;21696;-67
2021/11/05 10:41:09;;;;;;;4.37;1.77;;;;;;;6.58;100.00;98924.81;1752133;80;21023;-67
2021/11/05 10:43:48;;;;;;;1.82;1.40;;;;;;;6.60;100.00;98920.83;1746544;80;21082;-67
2021/11/05 10:46:40;;;;;;;2.17;1.32;;;;;;;6.57;100.00;98936.07;1748668;80;21044;-69
2021/11/05 10:49:26;;;;;;;2.90;1.60;;;;;;;6.53;100.00;98931.11;1748614;80;20937;-68
2021/11/05 10:52:13;;;;;;;5.95;2.42;;;;;;;6.46;100.00;98940.88;1748015;80;21037;-69
2021/11/05 10:55:00;;;;;;;;;;;;;;;6.44;100.00;98950.05;1757960;80;21001;-68
2021/11/05 10:57:58;;;;;;;4.75;2.15;;;;;;;6.43;100.00;98954.82;1746904;80;21146;-69
2021/11/05 11:00:35;;;;;;;13.95;3.25;;;;;;;6.41;100.00;98956.66;1742694;80;21057;-68
2021/11/05 11:03:22;;;;;;;4.40;2.00;;;;;;;6.42;100.00;98966.11;1747785;80;21597;-68
2021/11/05 11:06:11;;;;;;;7.70;2.17;;;;;;;6.38;100.00;98971.48;1632019;85;21111;-68
2021/11/05 11:08:49;;;;;;;3.47;1.92;;;;;;;6.33;100.00;98974.28;1634722;85;21115;-67
2021/11/05 11:11:42;;;;;;;5.83;2.37;;;;;;;6.29;100.00;98985.67;1619064;86;21163;-66
2021/11/05 11:14:18;;;;;;;5.53;2.10;;;;;;;6.27;100.00;99001.73;1612322;87;21160;-68
2021/11/05 11:16:56;;;;;;;6.25;2.22;;;;;;;6.23;100.00;99013.16;1615415;87;21068;-68
2021/11/05 11:19:27;;;;;;;4.30;1.60;;;;;;;6.21;100.00;98998.11;1611954;86;21242;-67
2021/11/05 11:22:04;;;;;;;3.67;1.90;;;;;;;6.22;100.00;99007.59;1619631;86;21097;-67
2021/11/05 11:24:33;;;;;;;;;;;;;;;6.22;100.00;99017.95;1614886;87;21156;-68
2021/11/05 11:27:02;;;;;;;4.28;2.00;;;;;;;6.23;100.00;99009.27;1617699;86;20209;-68
2021/11/05 11:29:29;;;;;;;4.80;1.65;;;;;;;6.20;100.00;99017.17;1617421;87;21165;-67
2021/11/05 11:31:59;;;;;;;;;;;;;;;6.20;100.00;99035.31;1618097;86;21090;-68
2021/11/05 11:34:26;;;;;;;3.58;1.47;;;;;;;6.18;100.00;99030.17;1613975;86;20245;-68
2021/11/05 11:37:00;;;;;;;3.05;1.47;;;;;;;6.20;100.00;99027.53;1653624;81;21105;-67
2021/11/05 11:39:30;;;;;;;2.47;1.50;;;;;;;6.19;100.00;99034.48;1702631;82;21730;-67
2021/11/05 11:42:04;;;;;;;3.33;1.75;;;;;;;6.21;100.00;99030.51;1700104;82;21010;-69
2021/11/05 11:44:35;;;;;;;4.17;1.40;;;;;;;6.22;100.00;99037.41;1702426;82;21131;-68
2021/11/05 11:47:10;;;;;;;2.98;1.30;;;;;;;6.21;100.00;99042.17;1703317;82;21548;-68
2021/11/05 11:49:44;;;;;;;3.85;2.20;;;;;;;6.20;100.00;99048.27;1700463;82;21594;-67
2021/11/05 11:52:28;;;;;;;1.95;1.45;;;;;;;6.16;100.00;99047.98;1708322;81;21606;-68
2021/11/05 11:55:00;;;;;;;2.65;1.72;;;;;;;6.16;100.00;99063.11;1683453;83;21062;-67
2021/11/05 11:57:35;;;;;;;2.95;1.65;;;;;;;6.16;100.00;99070.02;1693712;83;21098;-67